Latest Weather Observations for Warburto Point

IDS60801

Issued at 11:05 am CST Wednesday 3 September 2014 (issued every 30 minutes, with the page automatically refreshed every 10 minutes)

About weather observations | Map of weather stations | Latest weather observations for SA | Other Formats
Station Details ID: 022053 Name: WARBURTO POINT Lat: -34.00 Lon: 137.53 Height: 1.0 m
Data from the previous 72 hours. | See also: Recent months for locations in South Australia
Date/Time
CST
Temp
°C
App
Temp
°C
Dew
Point
Rel
Hum
%
Delta-T
°C
Wind Press
QNH
hPa
Press
MSL
hPa
Rain
since 9 am
mm
Dir
 
Spd
km/h
Gust
km/h
Spd
kts
Gust
kts
03/11:00am - - - - - NNE 26 32 14 17 - - -
03/10:30am - - - - - NE 22 30 12 16 - - -
03/10:00am - - - - - NE 22 30 12 16 - - -
03/09:30am - - - - - NE 19 26 10 14 - - -
03/09:00am - - - - - NE 15 24 8 13 - - -
03/08:30am - - - - - NE 15 17 8 9 - - -
03/08:00am - - - - - NE 11 13 6 7 - - -
03/07:30am - - - - - NE 11 13 6 7 - - -
03/07:00am - - - - - ENE 13 15 7 8 - - -
03/06:30am - - - - - ENE 15 17 8 9 - - -
03/06:00am - - - - - ENE 13 17 7 9 - - -
03/05:30am - - - - - E 13 17 7 9 - - -
03/05:00am - - - - - E 15 17 8 9 - - -
03/04:30am - - - - - E 15 17 8 9 - - -
03/04:00am - - - - - E 15 17 8 9 - - -
03/03:30am - - - - - E 15 19 8 10 - - -
03/03:00am - - - - - E 17 19 9 10 - - -
03/02:30am - - - - - E 13 15 7 8 - - -
03/02:00am - - - - - E 11 11 6 6 - - -
03/01:30am - - - - - ESE 11 13 6 7 - - -
03/01:00am - - - - - ESE 9 11 5 6 - - -
03/12:30am - - - - - ESE 11 13 6 7 - - -
03/12:00am - - - - - SE 13 15 7 8 - - -
 
Date/Time
CST
Temp
°C
App
Temp
°C
Dew
Point
Rel
Hum
%
Delta-T
°C
Wind Press
QNH
hPa
Press
MSL
hPa
Rain
since 9 am
mm
Dir
 
Spd
km/h
Gust
km/h
Spd
kts
Gust
kts
02/11:30pm - - - - - SE 11 13 6 7 - - -
02/11:00pm - - - - - ESE 11 13 6 7 - - -
02/10:30pm - - - - - SE 13 15 7 8 - - -
02/10:00pm - - - - - SSE 13 15 7 8 - - -
02/09:30pm - - - - - SE 11 15 6 8 - - -
02/09:00pm - - - - - SSE 15 20 8 11 - - -
02/08:30pm - - - - - SSE 15 17 8 9 - - -
02/08:00pm - - - - - S 19 24 10 13 - - -
02/07:30pm - - - - - S 20 26 11 14 - - -
02/07:00pm - - - - - SSW 20 26 11 14 - - -
02/06:30pm - - - - - SSW 22 26 12 14 - - -
02/06:00pm - - - - - SSW 22 28 12 15 - - -
02/05:30pm - - - - - SSW 24 30 13 16 - - -
02/05:00pm - - - - - SSW 24 30 13 16 - - -
02/04:30pm - - - - - SSW 24 30 13 16 - - -
02/04:00pm - - - - - SW 24 35 13 19 - - -
02/03:30pm - - - - - SW 20 26 11 14 - - -
02/03:00pm - - - - - S 19 26 10 14 - - -
02/02:30pm - - - - - SSW 28 33 15 18 - - -
02/02:00pm - - - - - SW 26 33 14 18 - - -
02/01:30pm - - - - - SW 26 32 14 17 - - -
02/01:00pm - - - - - SSW 26 33 14 18 - - -
02/12:30pm - - - - - SSW 24 30 13 16 - - -
02/12:00pm - - - - - SW 26 33 14 18 - - -
02/11:30am - - - - - SSW 24 32 13 17 - - -
02/11:00am - - - - - SSW 26 32 14 17 - - -
02/10:30am - - - - - SSW 28 33 15 18 - - -
02/10:00am - - - - - S 24 32 13 17 - - -
02/09:30am - - - - - S 20 28 11 15 - - -
02/09:00am - - - - - S 22 30 12 16 - - -
02/08:30am - - - - - S 22 28 12 15 - - -
02/08:00am - - - - - S 19 26 10 14 - - -
02/07:30am - - - - - S 20 28 11 15 - - -
02/07:00am - - - - - S 24 30 13 16 - - -
02/06:30am - - - - - S 32 43 17 23 - - -
02/06:00am - - - - - S 33 41 18 22 - - -
02/05:30am - - - - - S 33 41 18 22 - - -
02/05:00am - - - - - S 32 41 17 22 - - -
02/04:30am - - - - - S 32 41 17 22 - - -
02/04:00am - - - - - SSW 32 39 17 21 - - -
02/03:30am - - - - - SSW 32 41 17 22 - - -
02/03:00am - - - - - SSW 35 46 19 25 - - -
02/02:30am - - - - - SSW 39 50 21 27 - - -
02/02:16am - - - - - SSW 33 52 18 28 - - -
02/02:00am - - - - - SW 37 50 20 27 - - -
02/01:30am - - - - - SW 37 48 20 26 - - -
02/01:00am - - - - - SW 33 43 18 23 - - -
02/12:30am - - - - - SW 37 57 20 31 - - -
02/12:00am - - - - - SW 39 52 21 28 - - -
 
Date/Time
CST
Temp
°C
App
Temp
°C
Dew
Point
Rel
Hum
%
Delta-T
°C
Wind Press
QNH
hPa
Press
MSL
hPa
Rain
since 9 am
mm
Dir
 
Spd
km/h
Gust
km/h
Spd
kts
Gust
kts
01/11:30pm - - - - - SW 39 50 21 27 - - -
01/11:00pm - - - - - SSW 44 57 24 31 - - -
01/10:30pm - - - - - SW 44 59 24 32 - - -
01/10:00pm - - - - - SW 41 54 22 29 - - -
01/09:46pm - - - - - SW 33 57 18 31 - - -
01/09:30pm - - - - - SSW 32 41 17 22 - - -
01/09:00pm - - - - - SSW 35 46 19 25 - - -
01/08:30pm - - - - - SSW 43 56 23 30 - - -
01/08:10pm - - - - - SW 43 63 23 34 - - -
01/08:00pm - - - - - SW 41 52 22 28 - - -
01/07:30pm - - - - - SSW 39 54 21 29 - - -
01/07:09pm - - - - - SW 37 57 20 31 - - -
01/07:00pm - - - - - SW 32 41 17 22 - - -
01/06:30pm - - - - - SW 37 50 20 27 - - -
01/06:19pm - - - - - SW 30 48 16 26 - - -
01/06:00pm - - - - - SW 24 33 13 18 - - -
01/05:30pm - - - - - SSW 22 30 12 16 - - -
01/05:03pm - - - - - WSW 32 54 17 29 - - -
01/05:00pm - - - - - WSW 30 37 16 20 - - -
01/04:30pm - - - - - WSW 24 35 13 19 - - -
01/04:00pm - - - - - SW 26 32 14 17 - - -
01/03:30pm - - - - - SW 30 41 16 22 - - -
01/03:00pm - - - - - SW 30 54 16 29 - - -
01/02:30pm - - - - - SSW 24 32 13 17 - - -
01/02:00pm - - - - - SW 28 35 15 19 - - -
01/01:30pm - - - - - SW 24 32 13 17 - - -
01/01:00pm - - - - - SW 26 37 14 20 - - -
01/12:30pm - - - - - SW 28 35 15 19 - - -
01/12:00pm - - - - - WSW 28 37 15 20 - - -
01/11:30am - - - - - WSW 28 33 15 18 - - -
01/11:00am - - - - - WSW 24 32 13 17 - - -
01/10:30am - - - - - WSW 24 32 13 17 - - -
01/10:00am - - - - - WSW 17 26 9 14 - - -
01/09:30am - - - - - SW 13 17 7 9 - - -
01/09:00am - - - - - SW 19 26 10 14 - - -
01/08:30am - - - - - SSW 17 22 9 12 - - -
01/08:00am - - - - - SSW 24 33 13 18 - - -
01/07:30am - - - - - SW 22 30 12 16 - - -
01/07:00am - - - - - SW 28 35 15 19 - - -
01/06:30am - - - - - W 22 28 12 15 - - -
01/06:00am - - - - - W 19 20 10 11 - - -
01/05:30am - - - - - W 19 22 10 12 - - -
01/05:00am - - - - - W 17 22 9 12 - - -
01/04:30am - - - - - W 15 20 8 11 - - -
01/04:00am - - - - - WSW 17 20 9 11 - - -
01/03:30am - - - - - WSW 15 17 8 9 - - -
01/03:00am - - - - - WSW 13 15 7 8 - - -
01/02:30am - - - - - WSW 15 19 8 10 - - -
01/02:00am - - - - - SSW 19 28 10 15 - - -
01/01:30am - - - - - WSW 9 13 5 7 - - -
01/01:00am - - - - - SSW 11 15 6 8 - - -
01/12:30am - - - - - SSW 20 28 11 15 - - -
01/12:00am - - - - - SSW 20 26 11 14 - - -
 
Date/Time
CST
Temp
°C
App
Temp
°C
Dew
Point
Rel
Hum
%
Delta-T
°C
Wind Press
QNH
hPa
Press
MSL
hPa
Rain
since 9 am
mm
Dir
 
Spd
km/h
Gust
km/h
Spd
kts
Gust
kts
31/11:30pm - - - - - SSW 19 26 10 14 - - -
31/11:00pm - - - - - SSW 24 32 13 17 - - -
31/10:30pm - - - - - SSW 13 17 7 9 - - -
31/10:00pm - - - - - SW 17 20 9 11 - - -
31/09:30pm - - - - - SSW 19 26 10 14 - - -
31/09:00pm - - - - - SW 20 26 11 14 - - -
31/08:30pm - - - - - SW 20 28 11 15 - - -
31/08:00pm - - - - - SW 22 30 12 16 - - -
31/07:30pm - - - - - SSW 17 20 9 11 - - -
31/07:00pm - - - - - SSW 17 22 9 12 - - -
31/06:30pm - - - - - S 13 17 7 9 - - -
31/06:00pm - - - - - SSW 9 11 5 6 - - -
31/05:30pm - - - - - W 15 19 8 10 - - -
31/05:00pm - - - - - NNE 15 19 8 10 - - -
31/04:30pm - - - - - NNE 19 22 10 12 - - -
31/04:00pm - - - - - NNE 24 28 13 15 - - -
31/03:30pm - - - - - N 26 30 14 16 - - -
31/03:00pm - - - - - - - - - - - - -
31/02:00pm - - - - - NNE 32 37 17 20 - - -
31/01:30pm - - - - - NNE 30 35 16 19 - - -
31/01:00pm - - - - - NNE 32 37 17 20 - - -
31/12:30pm - - - - - NNE 33 41 18 22 - - -
31/12:00pm - - - - - NNE 32 39 17 21 - - -
31/11:30am - - - - - NNE 35 41 19 22 - - -

Other Formats:

Comma delimited format used in spreadsheet applications
http://www.bom.gov.au/fwo/IDS60801/IDS60801.94666.axf

JavaScript Object Notation format (JSON) in row-major order
http://www.bom.gov.au/fwo/IDS60801/IDS60801.94666.json